sensor_id;sensor_type;location;lat;lon;timestamp;P1;durP1;ratioP1;P2;durP2;ratioP2
38785;SDS011;24535;45.508;12.252;2022-12-29T00:01:43;57.55;;;39.15;;
38785;SDS011;24535;45.508;12.252;2022-12-29T00:04:09;47.53;;;36.95;;
38785;SDS011;24535;45.508;12.252;2022-12-29T00:06:37;56.97;;;40.35;;
38785;SDS011;24535;45.508;12.252;2022-12-29T00:09:03;57.03;;;40.13;;
38785;SDS011;24535;45.508;12.252;2022-12-29T00:11:29;43.25;;;32.03;;
38785;SDS011;24535;45.508;12.252;2022-12-29T00:13:54;48.42;;;35.63;;
38785;SDS011;24535;45.508;12.252;2022-12-29T00:16:43;47.95;;;36.10;;
38785;SDS011;24535;45.508;12.252;2022-12-29T00:19:10;52.28;;;38.50;;
38785;SDS011;24535;45.508;12.252;2022-12-29T00:21:59;52.70;;;39.28;;
38785;SDS011;24535;45.508;12.252;2022-12-29T00:24:43;51.30;;;39.63;;
38785;SDS011;24535;45.508;12.252;2022-12-29T00:27:28;49.42;;;37.75;;
38785;SDS011;24535;45.508;12.252;2022-12-29T00:30:14;50.33;;;39.35;;
38785;SDS011;24535;45.508;12.252;2022-12-29T00:36:34;52.00;;;37.28;;
38785;SDS011;24535;45.508;12.252;2022-12-29T00:39:24;56.10;;;40.55;;
38785;SDS011;24535;45.508;12.252;2022-12-29T00:42:08;49.75;;;38.95;;
38785;SDS011;24535;45.508;12.252;2022-12-29T00:45:03;55.72;;;40.00;;
38785;SDS011;24535;45.508;12.252;2022-12-29T00:47:29;53.22;;;38.20;;
38785;SDS011;24535;45.508;12.252;2022-12-29T00:49:55;56.20;;;39.13;;
38785;SDS011;24535;45.508;12.252;2022-12-29T00:55:10;47.90;;;36.03;;
38785;SDS011;24535;45.508;12.252;2022-12-29T00:57:48;48.45;;;38.08;;
38785;SDS011;24535;45.508;12.252;2022-12-29T01:00:23;49.20;;;38.05;;
38785;SDS011;24535;45.508;12.252;2022-12-29T01:02:48;53.30;;;37.00;;
38785;SDS011;24535;45.508;12.252;2022-12-29T01:05:14;45.90;;;35.75;;
38785;SDS011;24535;45.508;12.252;2022-12-29T01:07:39;40.20;;;30.63;;
38785;SDS011;24535;45.508;12.252;2022-12-29T01:10:05;44.35;;;33.17;;
38785;SDS011;24535;45.508;12.252;2022-12-29T01:12:37;41.97;;;32.40;;
38785;SDS011;24535;45.508;12.252;2022-12-29T01:15:06;46.95;;;35.03;;
38785;SDS011;24535;45.508;12.252;2022-12-29T01:17:33;37.35;;;29.42;;
38785;SDS011;24535;45.508;12.252;2022-12-29T01:19:59;41.60;;;31.98;;
38785;SDS011;24535;45.508;12.252;2022-12-29T01:22:24;39.97;;;30.52;;
38785;SDS011;24535;45.508;12.252;2022-12-29T01:24:50;43.15;;;34.25;;
38785;SDS011;24535;45.508;12.252;2022-12-29T01:27:15;40.33;;;32.70;;
38785;SDS011;24535;45.508;12.252;2022-12-29T01:29:41;43.42;;;33.95;;
38785;SDS011;24535;45.508;12.252;2022-12-29T01:32:06;50.30;;;34.70;;
38785;SDS011;24535;45.508;12.252;2022-12-29T01:34:47;39.35;;;29.63;;
38785;SDS011;24535;45.508;12.252;2022-12-29T01:37:13;47.10;;;35.47;;
38785;SDS011;24535;45.508;12.252;2022-12-29T01:39:41;43.60;;;34.47;;
38785;SDS011;24535;45.508;12.252;2022-12-29T01:42:16;47.67;;;35.97;;
38785;SDS011;24535;45.508;12.252;2022-12-29T01:45:11;48.53;;;35.15;;
38785;SDS011;24535;45.508;12.252;2022-12-29T01:56:57;48.72;;;37.25;;
38785;SDS011;24535;45.508;12.252;2022-12-29T01:59:27;46.70;;;39.05;;
38785;SDS011;24535;45.508;12.252;2022-12-29T02:02:00;48.95;;;38.05;;
38785;SDS011;24535;45.508;12.252;2022-12-29T02:04:27;44.97;;;35.45;;
38785;SDS011;24535;45.508;12.252;2022-12-29T02:07:07;46.72;;;35.90;;
38785;SDS011;24535;45.508;12.252;2022-12-29T02:09:36;41.17;;;33.75;;
38785;SDS011;24535;45.508;12.252;2022-12-29T02:12:02;46.28;;;36.97;;
38785;SDS011;24535;45.508;12.252;2022-12-29T02:14:29;46.40;;;35.95;;
38785;SDS011;24535;45.508;12.252;2022-12-29T02:22:56;42.00;;;32.70;;
38785;SDS011;24535;45.508;12.252;2022-12-29T02:36:54;44.67;;;37.85;;
38785;SDS011;24535;45.508;12.252;2022-12-29T02:42:36;52.72;;;36.45;;
38785;SDS011;24535;45.508;12.252;2022-12-29T02:45:22;45.55;;;37.65;;
38785;SDS011;24535;45.508;12.252;2022-12-29T02:47:57;45.20;;;36.47;;
38785;SDS011;24535;45.508;12.252;2022-12-29T02:50:25;43.20;;;34.08;;
38785;SDS011;24535;45.508;12.252;2022-12-29T02:52:59;40.92;;;35.05;;
38785;SDS011;24535;45.508;12.252;2022-12-29T02:55:27;43.85;;;35.08;;
38785;SDS011;24535;45.508;12.252;2022-12-29T03:09:08;46.45;;;33.42;;
38785;SDS011;24535;45.508;12.252;2022-12-29T03:12:06;53.17;;;37.83;;
38785;SDS011;24535;45.508;12.252;2022-12-29T03:17:47;43.03;;;37.17;;
38785;SDS011;24535;45.508;12.252;2022-12-29T03:20:36;47.80;;;37.08;;
38785;SDS011;24535;45.508;12.252;2022-12-29T03:23:07;49.13;;;38.42;;
38785;SDS011;24535;45.508;12.252;2022-12-29T03:25:34;47.13;;;36.15;;
38785;SDS011;24535;45.508;12.252;2022-12-29T03:28:12;43.97;;;32.90;;
38785;SDS011;24535;45.508;12.252;2022-12-29T03:31:03;40.85;;;33.00;;
38785;SDS011;24535;45.508;12.252;2022-12-29T03:33:32;46.67;;;36.60;;
38785;SDS011;24535;45.508;12.252;2022-12-29T03:39:20;45.28;;;36.00;;
38785;SDS011;24535;45.508;12.252;2022-12-29T03:41:48;46.42;;;37.92;;
38785;SDS011;24535;45.508;12.252;2022-12-29T03:44:18;46.80;;;38.65;;
38785;SDS011;24535;45.508;12.252;2022-12-29T03:46:43;50.22;;;39.47;;
38785;SDS011;24535;45.508;12.252;2022-12-29T03:52:10;50.17;;;37.45;;
38785;SDS011;24535;45.508;12.252;2022-12-29T03:54:35;48.58;;;38.47;;
38785;SDS011;24535;45.508;12.252;2022-12-29T03:57:01;40.95;;;33.25;;
38785;SDS011;24535;45.508;12.252;2022-12-29T03:59:26;51.17;;;39.88;;
38785;SDS011;24535;45.508;12.252;2022-12-29T04:04:33;50.33;;;39.08;;
38785;SDS011;24535;45.508;12.252;2022-12-29T04:06:59;49.42;;;39.65;;
38785;SDS011;24535;45.508;12.252;2022-12-29T04:09:45;45.15;;;36.22;;
38785;SDS011;24535;45.508;12.252;2022-12-29T04:12:11;48.95;;;37.88;;
38785;SDS011;24535;45.508;12.252;2022-12-29T04:17:28;47.47;;;35.80;;
38785;SDS011;24535;45.508;12.252;2022-12-29T04:19:59;39.53;;;34.83;;
38785;SDS011;24535;45.508;12.252;2022-12-29T04:22:43;46.08;;;35.88;;
38785;SDS011;24535;45.508;12.252;2022-12-29T04:25:24;45.78;;;35.47;;
38785;SDS011;24535;45.508;12.252;2022-12-29T04:27:59;43.25;;;34.55;;
38785;SDS011;24535;45.508;12.252;2022-12-29T04:30:25;43.00;;;35.85;;
38785;SDS011;24535;45.508;12.252;2022-12-29T04:32:50;45.65;;;33.47;;
38785;SDS011;24535;45.508;12.252;2022-12-29T04:35:16;39.35;;;34.22;;
38785;SDS011;24535;45.508;12.252;2022-12-29T04:37:50;40.55;;;34.78;;
38785;SDS011;24535;45.508;12.252;2022-12-29T04:40:15;39.75;;;33.35;;
38785;SDS011;24535;45.508;12.252;2022-12-29T04:42:42;41.72;;;32.58;;
38785;SDS011;24535;45.508;12.252;2022-12-29T04:45:08;47.78;;;37.67;;
38785;SDS011;24535;45.508;12.252;2022-12-29T04:47:34;44.25;;;36.22;;
38785;SDS011;24535;45.508;12.252;2022-12-29T04:49:59;43.75;;;36.95;;
38785;SDS011;24535;45.508;12.252;2022-12-29T04:52:33;47.03;;;36.97;;
38785;SDS011;24535;45.508;12.252;2022-12-29T04:55:03;43.67;;;34.33;;
38785;SDS011;24535;45.508;12.252;2022-12-29T04:57:29;42.67;;;32.60;;
38785;SDS011;24535;45.508;12.252;2022-12-29T04:59:55;45.08;;;33.85;;
38785;SDS011;24535;45.508;12.252;2022-12-29T05:02:20;41.35;;;31.92;;
38785;SDS011;24535;45.508;12.252;2022-12-29T05:04:46;39.78;;;33.35;;
38785;SDS011;24535;45.508;12.252;2022-12-29T05:09:50;43.22;;;31.15;;
38785;SDS011;24535;45.508;12.252;2022-12-29T05:12:15;44.35;;;33.90;;
38785;SDS011;24535;45.508;12.252;2022-12-29T05:14:44;44.42;;;31.95;;
38785;SDS011;24535;45.508;12.252;2022-12-29T05:17:09;36.80;;;29.85;;
38785;SDS011;24535;45.508;12.252;2022-12-29T05:19:34;35.92;;;30.02;;
38785;SDS011;24535;45.508;12.252;2022-12-29T05:22:00;42.92;;;30.20;;
38785;SDS011;24535;45.508;12.252;2022-12-29T05:24:25;37.80;;;29.73;;
38785;SDS011;24535;45.508;12.252;2022-12-29T05:26:51;38.58;;;31.98;;
38785;SDS011;24535;45.508;12.252;2022-12-29T05:29:16;40.33;;;30.45;;
38785;SDS011;24535;45.508;12.252;2022-12-29T05:31:42;39.90;;;30.10;;
38785;SDS011;24535;45.508;12.252;2022-12-29T05:34:08;38.85;;;30.00;;
38785;SDS011;24535;45.508;12.252;2022-12-29T05:36:36;36.85;;;30.25;;
38785;SDS011;24535;45.508;12.252;2022-12-29T05:39:01;40.22;;;31.08;;
38785;SDS011;24535;45.508;12.252;2022-12-29T05:41:27;32.97;;;29.50;;
38785;SDS011;24535;45.508;12.252;2022-12-29T05:43:52;37.30;;;29.33;;
38785;SDS011;24535;45.508;12.252;2022-12-29T05:46:18;38.60;;;29.30;;
38785;SDS011;24535;45.508;12.252;2022-12-29T05:48:43;36.00;;;29.40;;
38785;SDS011;24535;45.508;12.252;2022-12-29T05:51:08;34.70;;;28.52;;
38785;SDS011;24535;45.508;12.252;2022-12-29T05:53:34;36.08;;;27.73;;
38785;SDS011;24535;45.508;12.252;2022-12-29T05:55:59;37.05;;;29.70;;
38785;SDS011;24535;45.508;12.252;2022-12-29T05:58:25;42.00;;;31.08;;
38785;SDS011;24535;45.508;12.252;2022-12-29T06:00:50;36.83;;;30.13;;
38785;SDS011;24535;45.508;12.252;2022-12-29T06:03:16;38.13;;;30.95;;
38785;SDS011;24535;45.508;12.252;2022-12-29T06:05:44;36.65;;;31.00;;
38785;SDS011;24535;45.508;12.252;2022-12-29T06:08:10;42.03;;;32.45;;
38785;SDS011;24535;45.508;12.252;2022-12-29T06:10:35;38.60;;;32.22;;
38785;SDS011;24535;45.508;12.252;2022-12-29T06:13:01;44.10;;;32.72;;
38785;SDS011;24535;45.508;12.252;2022-12-29T06:15:28;36.58;;;28.92;;
38785;SDS011;24535;45.508;12.252;2022-12-29T06:17:54;37.50;;;30.85;;
38785;SDS011;24535;45.508;12.252;2022-12-29T06:20:19;40.45;;;29.58;;
38785;SDS011;24535;45.508;12.252;2022-12-29T06:22:45;34.00;;;27.33;;
38785;SDS011;24535;45.508;12.252;2022-12-29T06:25:19;38.55;;;28.70;;
38785;SDS011;24535;45.508;12.252;2022-12-29T06:27:44;36.50;;;26.63;;
38785;SDS011;24535;45.508;12.252;2022-12-29T06:30:10;31.60;;;28.00;;
38785;SDS011;24535;45.508;12.252;2022-12-29T06:32:36;36.05;;;29.90;;
38785;SDS011;24535;45.508;12.252;2022-12-29T06:35:03;39.78;;;30.55;;
38785;SDS011;24535;45.508;12.252;2022-12-29T06:37:29;41.20;;;30.52;;
38785;SDS011;24535;45.508;12.252;2022-12-29T06:40:01;37.13;;;29.02;;
38785;SDS011;24535;45.508;12.252;2022-12-29T06:42:27;40.10;;;31.75;;
38785;SDS011;24535;45.508;12.252;2022-12-29T06:47:52;33.28;;;28.73;;
38785;SDS011;24535;45.508;12.252;2022-12-29T06:50:17;35.95;;;30.55;;
38785;SDS011;24535;45.508;12.252;2022-12-29T06:52:46;39.20;;;29.88;;
38785;SDS011;24535;45.508;12.252;2022-12-29T06:55:11;33.87;;;29.13;;
38785;SDS011;24535;45.508;12.252;2022-12-29T06:57:37;40.95;;;30.42;;
38785;SDS011;24535;45.508;12.252;2022-12-29T07:00:03;36.65;;;28.92;;
38785;SDS011;24535;45.508;12.252;2022-12-29T07:02:29;33.33;;;29.58;;
38785;SDS011;24535;45.508;12.252;2022-12-29T07:04:55;37.97;;;31.00;;
38785;SDS011;24535;45.508;12.252;2022-12-29T07:07:29;38.70;;;31.60;;
38785;SDS011;24535;45.508;12.252;2022-12-29T07:09:59;38.28;;;30.58;;
38785;SDS011;24535;45.508;12.252;2022-12-29T07:12:24;39.03;;;30.90;;
38785;SDS011;24535;45.508;12.252;2022-12-29T07:14:50;37.17;;;29.38;;
38785;SDS011;24535;45.508;12.252;2022-12-29T07:17:18;35.13;;;28.90;;
38785;SDS011;24535;45.508;12.252;2022-12-29T07:19:44;41.50;;;31.00;;
38785;SDS011;24535;45.508;12.252;2022-12-29T07:22:09;43.40;;;33.58;;
38785;SDS011;24535;45.508;12.252;2022-12-29T07:24:35;36.33;;;28.23;;
38785;SDS011;24535;45.508;12.252;2022-12-29T07:27:00;37.08;;;30.33;;
38785;SDS011;24535;45.508;12.252;2022-12-29T07:29:26;33.42;;;26.98;;
38785;SDS011;24535;45.508;12.252;2022-12-29T07:31:51;37.30;;;30.17;;
38785;SDS011;24535;45.508;12.252;2022-12-29T07:34:17;37.22;;;28.42;;
38785;SDS011;24535;45.508;12.252;2022-12-29T07:36:42;34.03;;;27.55;;
38785;SDS011;24535;45.508;12.252;2022-12-29T07:39:07;35.95;;;29.67;;
38785;SDS011;24535;45.508;12.252;2022-12-29T07:41:33;36.38;;;30.60;;
38785;SDS011;24535;45.508;12.252;2022-12-29T07:43:59;32.78;;;28.33;;
38785;SDS011;24535;45.508;12.252;2022-12-29T07:46:25;35.30;;;28.02;;
38785;SDS011;24535;45.508;12.252;2022-12-29T07:48:50;36.63;;;29.95;;
38785;SDS011;24535;45.508;12.252;2022-12-29T07:51:16;42.58;;;31.33;;
38785;SDS011;24535;45.508;12.252;2022-12-29T07:53:41;39.60;;;34.17;;
38785;SDS011;24535;45.508;12.252;2022-12-29T07:56:07;36.85;;;30.90;;
38785;SDS011;24535;45.508;12.252;2022-12-29T07:58:32;39.25;;;31.33;;
38785;SDS011;24535;45.508;12.252;2022-12-29T08:01:00;42.65;;;32.88;;
38785;SDS011;24535;45.508;12.252;2022-12-29T08:03:50;39.35;;;30.40;;
38785;SDS011;24535;45.508;12.252;2022-12-29T08:06:16;33.75;;;26.92;;
38785;SDS011;24535;45.508;12.252;2022-12-29T08:11:38;39.03;;;30.77;;
38785;SDS011;24535;45.508;12.252;2022-12-29T08:14:05;33.50;;;26.17;;
38785;SDS011;24535;45.508;12.252;2022-12-29T08:16:31;33.58;;;28.00;;
38785;SDS011;24535;45.508;12.252;2022-12-29T08:18:57;39.50;;;30.95;;
38785;SDS011;24535;45.508;12.252;2022-12-29T08:21:33;36.22;;;29.65;;
38785;SDS011;24535;45.508;12.252;2022-12-29T08:23:58;36.88;;;29.80;;
38785;SDS011;24535;45.508;12.252;2022-12-29T08:26:24;37.42;;;29.50;;
38785;SDS011;24535;45.508;12.252;2022-12-29T08:28:51;34.90;;;28.25;;
38785;SDS011;24535;45.508;12.252;2022-12-29T08:31:18;35.43;;;29.47;;
38785;SDS011;24535;45.508;12.252;2022-12-29T08:33:43;35.75;;;29.58;;
38785;SDS011;24535;45.508;12.252;2022-12-29T08:36:09;31.27;;;25.42;;
38785;SDS011;24535;45.508;12.252;2022-12-29T08:38:34;33.58;;;25.38;;
38785;SDS011;24535;45.508;12.252;2022-12-29T08:41:00;33.20;;;26.90;;
38785;SDS011;24535;45.508;12.252;2022-12-29T08:43:28;27.30;;;23.13;;
38785;SDS011;24535;45.508;12.252;2022-12-29T08:45:54;34.28;;;29.60;;
38785;SDS011;24535;45.508;12.252;2022-12-29T08:48:23;30.27;;;26.60;;
38785;SDS011;24535;45.508;12.252;2022-12-29T08:50:49;39.25;;;27.83;;
38785;SDS011;24535;45.508;12.252;2022-12-29T08:53:15;33.03;;;27.92;;
38785;SDS011;24535;45.508;12.252;2022-12-29T08:55:44;33.40;;;28.23;;
38785;SDS011;24535;45.508;12.252;2022-12-29T08:58:11;36.20;;;28.52;;
38785;SDS011;24535;45.508;12.252;2022-12-29T09:00:45;31.45;;;26.23;;
38785;SDS011;24535;45.508;12.252;2022-12-29T09:03:10;34.25;;;26.67;;
38785;SDS011;24535;45.508;12.252;2022-12-29T09:05:36;30.85;;;26.40;;
38785;SDS011;24535;45.508;12.252;2022-12-29T09:08:02;33.50;;;25.75;;
38785;SDS011;24535;45.508;12.252;2022-12-29T09:10:29;32.83;;;26.23;;
38785;SDS011;24535;45.508;12.252;2022-12-29T09:12:54;29.63;;;24.15;;
38785;SDS011;24535;45.508;12.252;2022-12-29T09:15:20;29.20;;;24.05;;
38785;SDS011;24535;45.508;12.252;2022-12-29T09:17:45;33.60;;;25.95;;
38785;SDS011;24535;45.508;12.252;2022-12-29T09:20:18;28.58;;;25.42;;
38785;SDS011;24535;45.508;12.252;2022-12-29T09:22:52;30.25;;;26.08;;
38785;SDS011;24535;45.508;12.252;2022-12-29T09:25:18;29.70;;;24.15;;
38785;SDS011;24535;45.508;12.252;2022-12-29T09:27:44;25.38;;;22.65;;
38785;SDS011;24535;45.508;12.252;2022-12-29T09:30:11;35.53;;;26.55;;
38785;SDS011;24535;45.508;12.252;2022-12-29T09:32:37;35.88;;;27.63;;
38785;SDS011;24535;45.508;12.252;2022-12-29T09:35:03;31.95;;;27.25;;
38785;SDS011;24535;45.508;12.252;2022-12-29T09:37:29;30.98;;;26.15;;
38785;SDS011;24535;45.508;12.252;2022-12-29T09:39:55;32.47;;;25.98;;
38785;SDS011;24535;45.508;12.252;2022-12-29T09:42:25;32.10;;;25.38;;
38785;SDS011;24535;45.508;12.252;2022-12-29T09:47:40;30.27;;;25.35;;
38785;SDS011;24535;45.508;12.252;2022-12-29T09:50:22;29.90;;;23.08;;
38785;SDS011;24535;45.508;12.252;2022-12-29T09:55:51;35.75;;;28.02;;
38785;SDS011;24535;45.508;12.252;2022-12-29T09:58:30;34.88;;;26.50;;
38785;SDS011;24535;45.508;12.252;2022-12-29T10:03:46;31.38;;;26.65;;
38785;SDS011;24535;45.508;12.252;2022-12-29T10:06:18;29.08;;;24.70;;
38785;SDS011;24535;45.508;12.252;2022-12-29T10:14:11;35.97;;;29.90;;
38785;SDS011;24535;45.508;12.252;2022-12-29T10:24:59;30.50;;;25.90;;
38785;SDS011;24535;45.508;12.252;2022-12-29T10:27:29;31.73;;;27.27;;
38785;SDS011;24535;45.508;12.252;2022-12-29T10:29:59;41.63;;;33.20;;
38785;SDS011;24535;45.508;12.252;2022-12-29T10:35:18;36.47;;;29.42;;
38785;SDS011;24535;45.508;12.252;2022-12-29T10:40:48;29.52;;;26.13;;
38785;SDS011;24535;45.508;12.252;2022-12-29T10:46:10;33.03;;;24.98;;
38785;SDS011;24535;45.508;12.252;2022-12-29T10:48:39;34.80;;;28.42;;
38785;SDS011;24535;45.508;12.252;2022-12-29T10:51:05;38.75;;;31.02;;
38785;SDS011;24535;45.508;12.252;2022-12-29T10:53:51;43.30;;;31.17;;
38785;SDS011;24535;45.508;12.252;2022-12-29T10:59:44;28.35;;;25.02;;
38785;SDS011;24535;45.508;12.252;2022-12-29T11:08:04;33.95;;;29.17;;
38785;SDS011;24535;45.508;12.252;2022-12-29T11:10:57;28.85;;;25.33;;
38785;SDS011;24535;45.508;12.252;2022-12-29T11:13:32;29.52;;;22.85;;
38785;SDS011;24535;45.508;12.252;2022-12-29T11:16:11;32.88;;;25.45;;
38785;SDS011;24535;45.508;12.252;2022-12-29T11:18:47;26.65;;;23.50;;
38785;SDS011;24535;45.508;12.252;2022-12-29T11:24:20;35.33;;;28.10;;
38785;SDS011;24535;45.508;12.252;2022-12-29T11:27:13;27.67;;;22.60;;
38785;SDS011;24535;45.508;12.252;2022-12-29T11:30:21;33.13;;;26.33;;
38785;SDS011;24535;45.508;12.252;2022-12-29T11:32:53;36.67;;;28.60;;
38785;SDS011;24535;45.508;12.252;2022-12-29T11:35:38;42.22;;;31.58;;
38785;SDS011;24535;45.508;12.252;2022-12-29T11:38:42;39.75;;;32.75;;
38785;SDS011;24535;45.508;12.252;2022-12-29T11:41:21;31.33;;;26.70;;
38785;SDS011;24535;45.508;12.252;2022-12-29T11:43:49;35.75;;;28.75;;
38785;SDS011;24535;45.508;12.252;2022-12-29T11:46:20;30.02;;;25.27;;
38785;SDS011;24535;45.508;12.252;2022-12-29T11:49:02;31.13;;;25.33;;
38785;SDS011;24535;45.508;12.252;2022-12-29T11:51:41;29.67;;;26.42;;
38785;SDS011;24535;45.508;12.252;2022-12-29T11:54:26;37.47;;;30.92;;
38785;SDS011;24535;45.508;12.252;2022-12-29T11:57:18;40.33;;;33.38;;
38785;SDS011;24535;45.508;12.252;2022-12-29T11:59:51;35.88;;;29.73;;
38785;SDS011;24535;45.508;12.252;2022-12-29T12:05:27;33.00;;;28.30;;
38785;SDS011;24535;45.508;12.252;2022-12-29T12:08:19;33.03;;;24.95;;
38785;SDS011;24535;45.508;12.252;2022-12-29T12:10:53;25.38;;;22.70;;
38785;SDS011;24535;45.508;12.252;2022-12-29T12:13:45;34.83;;;28.25;;
38785;SDS011;24535;45.508;12.252;2022-12-29T12:16:15;29.15;;;22.33;;
38785;SDS011;24535;45.508;12.252;2022-12-29T12:18:58;35.50;;;27.67;;
38785;SDS011;24535;45.508;12.252;2022-12-29T12:21:39;27.92;;;23.77;;
38785;SDS011;24535;45.508;12.252;2022-12-29T12:27:03;38.47;;;32.78;;
38785;SDS011;24535;45.508;12.252;2022-12-29T12:29:56;36.63;;;29.55;;
38785;SDS011;24535;45.508;12.252;2022-12-29T12:35:04;31.58;;;27.23;;
38785;SDS011;24535;45.508;12.252;2022-12-29T12:55:05;29.42;;;24.58;;
38785;SDS011;24535;45.508;12.252;2022-12-29T12:57:50;26.58;;;22.98;;
38785;SDS011;24535;45.508;12.252;2022-12-29T13:01:15;28.63;;;24.23;;
38785;SDS011;24535;45.508;12.252;2022-12-29T13:06:38;38.97;;;31.15;;
38785;SDS011;24535;45.508;12.252;2022-12-29T13:17:24;44.03;;;35.72;;
38785;SDS011;24535;45.508;12.252;2022-12-29T13:23:28;41.13;;;34.92;;
38785;SDS011;24535;45.508;12.252;2022-12-29T13:26:17;41.58;;;34.58;;
38785;SDS011;24535;45.508;12.252;2022-12-29T13:29:08;49.28;;;39.97;;
38785;SDS011;24535;45.508;12.252;2022-12-29T13:31:46;43.08;;;37.13;;
38785;SDS011;24535;45.508;12.252;2022-12-29T13:37:56;35.67;;;30.08;;
38785;SDS011;24535;45.508;12.252;2022-12-29T13:41:04;47.45;;;39.10;;
38785;SDS011;24535;45.508;12.252;2022-12-29T13:43:34;48.10;;;39.08;;
38785;SDS011;24535;45.508;12.252;2022-12-29T13:46:06;49.45;;;38.78;;
38785;SDS011;24535;45.508;12.252;2022-12-29T13:49:04;45.35;;;36.85;;
38785;SDS011;24535;45.508;12.252;2022-12-29T13:51:37;46.05;;;37.22;;
38785;SDS011;24535;45.508;12.252;2022-12-29T14:00:41;38.88;;;34.58;;
38785;SDS011;24535;45.508;12.252;2022-12-29T14:05:33;49.20;;;36.78;;
38785;SDS011;24535;45.508;12.252;2022-12-29T14:08:01;42.67;;;35.38;;
38785;SDS011;24535;45.508;12.252;2022-12-29T14:16:09;43.97;;;36.35;;
38785;SDS011;24535;45.508;12.252;2022-12-29T14:18:50;35.13;;;28.65;;
38785;SDS011;24535;45.508;12.252;2022-12-29T14:23:43;44.25;;;37.95;;
38785;SDS011;24535;45.508;12.252;2022-12-29T14:28:54;47.60;;;40.60;;
38785;SDS011;24535;45.508;12.252;2022-12-29T14:36:38;43.55;;;35.50;;
38785;SDS011;24535;45.508;12.252;2022-12-29T14:40:01;41.92;;;34.28;;
38785;SDS011;24535;45.508;12.252;2022-12-29T14:42:00;45.92;;;38.08;;
38785;SDS011;24535;45.508;12.252;2022-12-29T14:44:29;41.53;;;34.42;;
38785;SDS011;24535;45.508;12.252;2022-12-29T14:49:27;37.67;;;32.70;;
38785;SDS011;24535;45.508;12.252;2022-12-29T14:52:06;40.13;;;32.00;;
38785;SDS011;24535;45.508;12.252;2022-12-29T15:11:18;47.22;;;38.85;;
38785;SDS011;24535;45.508;12.252;2022-12-29T15:13:45;59.33;;;47.63;;
38785;SDS011;24535;45.508;12.252;2022-12-29T15:16:23;56.63;;;45.22;;
38785;SDS011;24535;45.508;12.252;2022-12-29T15:19:02;62.00;;;51.83;;
38785;SDS011;24535;45.508;12.252;2022-12-29T15:21:48;66.15;;;52.90;;
38785;SDS011;24535;45.508;12.252;2022-12-29T15:24:14;57.40;;;46.65;;
38785;SDS011;24535;45.508;12.252;2022-12-29T15:26:41;62.05;;;49.42;;
38785;SDS011;24535;45.508;12.252;2022-12-29T15:35:32;58.65;;;50.67;;
38785;SDS011;24535;45.508;12.252;2022-12-29T15:41:02;79.25;;;60.38;;
38785;SDS011;24535;45.508;12.252;2022-12-29T15:46:39;65.43;;;53.95;;
38785;SDS011;24535;45.508;12.252;2022-12-29T15:49:06;68.88;;;57.20;;
38785;SDS011;24535;45.508;12.252;2022-12-29T15:51:44;74.03;;;57.25;;
38785;SDS011;24535;45.508;12.252;2022-12-29T15:54:17;72.18;;;60.97;;
38785;SDS011;24535;45.508;12.252;2022-12-29T15:56:45;74.57;;;59.42;;
38785;SDS011;24535;45.508;12.252;2022-12-29T15:59:28;74.28;;;60.05;;
38785;SDS011;24535;45.508;12.252;2022-12-29T16:02:09;74.40;;;58.55;;
38785;SDS011;24535;45.508;12.252;2022-12-29T16:04:35;73.97;;;59.53;;
38785;SDS011;24535;45.508;12.252;2022-12-29T16:07:02;70.25;;;57.22;;
38785;SDS011;24535;45.508;12.252;2022-12-29T16:12:06;43.92;;;38.90;;
38785;SDS011;24535;45.508;12.252;2022-12-29T16:14:56;46.90;;;37.85;;
38785;SDS011;24535;45.508;12.252;2022-12-29T16:17:50;75.28;;;56.03;;
38785;SDS011;24535;45.508;12.252;2022-12-29T16:20:25;58.17;;;46.95;;
38785;SDS011;24535;45.508;12.252;2022-12-29T16:23:09;48.90;;;38.25;;
38785;SDS011;24535;45.508;12.252;2022-12-29T16:25:46;59.20;;;47.13;;
38785;SDS011;24535;45.508;12.252;2022-12-29T16:28:17;76.18;;;63.00;;
38785;SDS011;24535;45.508;12.252;2022-12-29T16:30:45;76.00;;;62.88;;
38785;SDS011;24535;45.508;12.252;2022-12-29T16:39:45;77.47;;;63.78;;
38785;SDS011;24535;45.508;12.252;2022-12-29T16:47:48;71.43;;;56.53;;
38785;SDS011;24535;45.508;12.252;2022-12-29T16:50:25;74.97;;;61.80;;
38785;SDS011;24535;45.508;12.252;2022-12-29T16:52:52;76.53;;;62.60;;
38785;SDS011;24535;45.508;12.252;2022-12-29T16:55:18;72.40;;;57.88;;
38785;SDS011;24535;45.508;12.252;2022-12-29T16:57:45;71.03;;;58.28;;
38785;SDS011;24535;45.508;12.252;2022-12-29T17:00:20;79.75;;;62.53;;
38785;SDS011;24535;45.508;12.252;2022-12-29T17:02:48;81.55;;;65.63;;
38785;SDS011;24535;45.508;12.252;2022-12-29T17:05:15;79.40;;;64.20;;
38785;SDS011;24535;45.508;12.252;2022-12-29T17:07:43;74.30;;;58.88;;
38785;SDS011;24535;45.508;12.252;2022-12-29T17:10:09;84.55;;;67.82;;
38785;SDS011;24535;45.508;12.252;2022-12-29T17:12:41;75.18;;;63.10;;
38785;SDS011;24535;45.508;12.252;2022-12-29T17:15:25;88.10;;;71.53;;
38785;SDS011;24535;45.508;12.252;2022-12-29T17:18:00;75.63;;;63.88;;
38785;SDS011;24535;45.508;12.252;2022-12-29T17:20:30;77.28;;;63.40;;
38785;SDS011;24535;45.508;12.252;2022-12-29T17:22:57;76.30;;;61.17;;
38785;SDS011;24535;45.508;12.252;2022-12-29T17:25:27;62.13;;;51.05;;
38785;SDS011;24535;45.508;12.252;2022-12-29T17:27:57;64.22;;;52.67;;
38785;SDS011;24535;45.508;12.252;2022-12-29T17:30:25;66.93;;;57.03;;
38785;SDS011;24535;45.508;12.252;2022-12-29T17:33:12;70.78;;;61.00;;
38785;SDS011;24535;45.508;12.252;2022-12-29T17:35:43;82.55;;;64.28;;
38785;SDS011;24535;45.508;12.252;2022-12-29T17:40:49;78.53;;;67.57;;
38785;SDS011;24535;45.508;12.252;2022-12-29T17:43:15;80.50;;;65.03;;
38785;SDS011;24535;45.508;12.252;2022-12-29T17:48:28;83.75;;;67.13;;
38785;SDS011;24535;45.508;12.252;2022-12-29T17:50:54;69.45;;;56.50;;
38785;SDS011;24535;45.508;12.252;2022-12-29T17:53:22;56.65;;;48.85;;
38785;SDS011;24535;45.508;12.252;2022-12-29T17:55:50;57.88;;;47.78;;
38785;SDS011;24535;45.508;12.252;2022-12-29T17:58:23;60.00;;;49.47;;
38785;SDS011;24535;45.508;12.252;2022-12-29T18:00:51;54.03;;;46.30;;
38785;SDS011;24535;45.508;12.252;2022-12-29T18:03:35;61.70;;;52.90;;
38785;SDS011;24535;45.508;12.252;2022-12-29T18:06:02;54.40;;;44.72;;
38785;SDS011;24535;45.508;12.252;2022-12-29T18:08:35;73.72;;;61.83;;
38785;SDS011;24535;45.508;12.252;2022-12-29T18:11:20;75.68;;;64.55;;
38785;SDS011;24535;45.508;12.252;2022-12-29T18:13:47;69.43;;;56.85;;
38785;SDS011;24535;45.508;12.252;2022-12-29T18:16:18;75.22;;;61.47;;
38785;SDS011;24535;45.508;12.252;2022-12-29T18:18:46;84.07;;;66.15;;
38785;SDS011;24535;45.508;12.252;2022-12-29T18:21:18;81.25;;;69.40;;
38785;SDS011;24535;45.508;12.252;2022-12-29T18:23:45;78.85;;;67.68;;
38785;SDS011;24535;45.508;12.252;2022-12-29T18:28:43;82.38;;;68.43;;
38785;SDS011;24535;45.508;12.252;2022-12-29T18:33:47;72.07;;;59.13;;